Time;durP1;ratioP1;P1;durP2;ratioP2;P2;SDS_P1;SDS_P2;PMS_P1;PMS_P2;Temp;Humidity;BMP_temperature;BMP_pressure;BME280_temperature;BME280_humidity;BME280_pressure;Samples;Min_cycle;Max_cycle;Signal;HPM_P1;HPM_P2
2023/08/12 00:00:16;;;;;;;3.38;2.58;;;;;;;20.54;nan;61547.19;5012242;28;20200;-66
2023/08/12 00:02:42;;;;;;;3.50;2.75;;;;;;;20.42;nan;61748.47;5012121;28;20172;-66
2023/08/12 00:05:08;;;;;;;3.70;2.65;;;;;;;20.45;nan;61593.53;5011133;28;20187;-65
2023/08/12 00:07:34;;;;;;;3.13;2.67;;;;;;;20.10;nan;61718.47;5012243;28;20180;-67
2023/08/12 00:10:04;;;;;;;3.40;2.40;;;;;;;20.63;nan;61728.16;5012299;28;20176;-66
2023/08/12 00:12:31;;;;;;;3.08;2.40;;;;;;;20.55;nan;61558.72;5012247;28;20249;-66
2023/08/12 00:14:56;;;;;;;3.20;2.58;;;;;;;20.72;nan;61712.97;5010806;28;20231;-65
2023/08/12 00:17:22;;;;;;;3.50;2.50;;;;;;;20.67;nan;61712.50;5011143;28;20180;-66
2023/08/12 00:19:47;;;;;;;3.70;2.80;;;;;;;20.54;nan;61666.03;5012229;28;20332;-65
2023/08/12 00:22:13;;;;;;;3.65;2.70;;;;;;;20.78;nan;61719.22;5012458;28;20179;-65
2023/08/12 00:24:38;;;;;;;3.25;2.33;;;;;;;20.78;nan;61675.06;5011977;28;20191;-64
2023/08/12 00:27:04;;;;;;;2.83;2.30;;;;;;;20.55;nan;61711.88;5011770;28;20643;-65
2023/08/12 00:29:29;;;;;;;4.13;2.80;;;;;;;20.55;nan;61623.03;5012187;28;20176;-65
2023/08/12 00:31:55;;;;;;;3.60;2.67;;;;;;;20.47;nan;61759.91;5011615;28;20646;-67
2023/08/12 00:34:21;;;;;;;4.38;2.70;;;;;;;20.57;nan;61690.78;5011994;28;20199;-65
2023/08/12 00:36:47;;;;;;;4.07;2.78;;;;;;;20.41;nan;61666.88;5011919;28;20203;-66
2023/08/12 00:39:12;;;;;;;3.13;2.45;;;;;;;20.61;nan;61814.75;5011869;28;20253;-66
2023/08/12 00:41:38;;;;;;;4.57;2.92;;;;;;;20.51;nan;61787.81;5011702;28;20189;-67
2023/08/12 00:44:03;;;;;;;4.05;2.75;;;;;;;20.35;nan;61668.41;5011878;28;20632;-66
2023/08/12 00:46:29;;;;;;;3.78;2.90;;;;;;;20.28;nan;61660.47;5011973;28;20183;-66
2023/08/12 00:48:55;;;;;;;4.15;2.75;;;;;;;20.18;nan;61631.53;5012218;28;20251;-67
2023/08/12 00:51:21;;;;;;;3.85;3.05;;;;;;;20.10;nan;61671.75;5011106;28;20194;-66
2023/08/12 00:53:46;;;;;;;3.85;2.90;;;;;;;20.08;nan;61651.31;5011859;28;20214;-66
2023/08/12 00:56:12;;;;;;;4.60;2.83;;;;;;;19.99;nan;61599.63;5011980;28;20184;-65
2023/08/12 00:58:39;;;;;;;3.25;2.55;;;;;;;19.74;nan;61719.09;5011693;28;20231;-65
2023/08/12 01:01:04;;;;;;;3.97;2.80;;;;;;;19.90;nan;61575.91;5010557;28;20632;-65
2023/08/12 01:03:30;;;;;;;5.15;2.97;;;;;;;19.78;nan;61638.66;5012364;28;20183;-65
2023/08/12 01:05:55;;;;;;;3.58;2.50;;;;;;;19.83;nan;61652.09;5011631;28;20267;-66
2023/08/12 01:08:22;;;;;;;6.53;2.80;;;;;;;19.96;nan;61624.75;5011844;28;20168;-66
2023/08/12 01:11:02;;;;;;;3.75;2.83;;;;;;;19.95;nan;61724.78;5011580;28;20184;-65
2023/08/12 01:13:34;;;;;;;3.28;2.60;;;;;;;;;;5012012;28;20543;-65
2023/08/12 01:16:05;;;;;;;5.20;2.80;;;;;;;20.01;nan;61637.66;5012166;28;20176;-65
2023/08/12 01:18:31;;;;;;;2.88;2.53;;;;;;;19.75;nan;61735.78;5011519;28;20521;-66
2023/08/12 01:20:58;;;;;;;3.53;2.80;;;;;;;19.78;nan;61619.94;5011410;28;20240;-65
2023/08/12 01:23:23;;;;;;;3.67;2.60;;;;;;;19.80;nan;61604.03;5011383;28;20178;-65
2023/08/12 01:25:49;;;;;;;4.07;2.90;;;;;;;19.52;nan;61536.03;5011373;28;20259;-66
2023/08/12 01:28:14;;;;;;;4.05;2.67;;;;;;;19.58;nan;61550.59;5013354;28;20742;-65
2023/08/12 01:31:01;;;;;;;4.78;2.90;;;;;;;19.32;nan;61662.19;5015052;28;20176;-65
2023/08/12 01:33:42;;;;;;;4.20;2.78;;;;;;;19.51;nan;61661.91;5015183;28;20175;-65
2023/08/12 01:36:19;;;;;;;4.68;2.75;;;;;;;19.08;nan;61513.25;5013710;28;20187;-66
2023/08/12 01:38:49;;;;;;;3.55;2.60;;;;;;;19.02;nan;61444.31;5014846;28;20206;-65
2023/08/12 01:41:16;;;;;;;3.47;2.65;;;;;;;18.96;nan;61471.19;5015393;28;20160;-66
2023/08/12 01:43:42;;;;;;;4.05;2.65;;;;;;;19.17;nan;61800.03;5015056;28;20248;-65
2023/08/12 01:46:08;;;;;;;3.55;2.60;;;;;;;19.25;nan;61542.84;5014806;28;20169;-65
2023/08/12 01:48:34;;;;;;;3.63;2.70;;;;;;;19.08;nan;61644.75;5015363;28;20206;-64
2023/08/12 01:50:59;;;;;;;4.85;2.97;;;;;;;19.22;nan;61559.63;5014539;28;20623;-65
2023/08/12 01:53:25;;;;;;;5.28;2.90;;;;;;;19.12;nan;61491.31;5015186;28;20180;-64
2023/08/12 01:55:51;;;;;;;3.20;2.63;;;;;;;18.94;nan;61637.78;5014773;28;20243;-64
2023/08/12 01:58:17;;;;;;;3.22;2.55;;;;;;;18.82;nan;61450.19;5014331;28;20180;-64
2023/08/12 02:00:42;;;;;;;4.97;3.22;;;;;;;18.99;nan;61505.66;5014402;28;20287;-65
2023/08/12 02:03:08;;;;;;;3.47;2.95;;;;;;;19.04;nan;61661.50;5014365;28;20176;-65
2023/08/12 02:05:33;;;;;;;6.15;2.90;;;;;;;19.19;nan;61549.00;5014554;28;20175;-65
2023/08/12 02:07:59;;;;;;;4.43;2.95;;;;;;;19.30;nan;61527.22;5014393;28;20270;-65
2023/08/12 02:10:24;;;;;;;4.82;3.03;;;;;;;19.32;nan;61563.19;5014110;28;20180;-64
2023/08/12 02:12:49;;;;;;;4.22;3.00;;;;;;;19.44;nan;61552.91;5014222;28;20250;-65
2023/08/12 02:15:15;;;;;;;3.92;2.85;;;;;;;19.55;nan;61555.56;5014285;28;20295;-65
2023/08/12 02:17:40;;;;;;;5.15;3.35;;;;;;;19.33;nan;61694.41;5014034;28;20172;-64
2023/08/12 02:20:06;;;;;;;3.50;2.80;;;;;;;19.33;nan;61556.53;5013980;28;20249;-64
2023/08/12 02:22:32;;;;;;;3.83;2.95;;;;;;;19.30;nan;61582.19;5014076;28;20183;-64
2023/08/12 02:24:57;;;;;;;6.90;2.92;;;;;;;19.26;nan;61543.41;5013886;28;20180;-64
2023/08/12 02:27:23;;;;;;;5.22;2.90;;;;;;;19.12;nan;61528.13;5014186;28;20578;-64
2023/08/12 02:29:48;;;;;;;3.95;2.60;;;;;;;18.91;nan;61541.16;5014037;28;20168;-65
2023/08/12 02:32:13;;;;;;;4.32;3.13;;;;;;;18.86;nan;61421.06;5014014;28;20179;-65
2023/08/12 02:34:39;;;;;;;4.57;2.92;;;;;;;18.88;nan;61498.38;5013788;28;20195;-65
2023/08/12 02:37:04;;;;;;;3.63;2.60;;;;;;;19.22;nan;61510.41;5013957;28;20176;-65
2023/08/12 02:39:30;;;;;;;3.95;2.70;;;;;;;19.14;nan;61620.50;5013094;28;20200;-65
2023/08/12 02:41:55;;;;;;;3.53;2.60;;;;;;;19.16;nan;61552.81;5013823;28;20210;-64
2023/08/12 02:44:20;;;;;;;3.72;2.67;;;;;;;18.95;nan;61607.28;5013567;28;20165;-65
2023/08/12 02:46:46;;;;;;;4.55;2.90;;;;;;;18.98;nan;61631.41;5013509;28;20188;-65
2023/08/12 02:49:11;;;;;;;3.72;2.63;;;;;;;18.91;nan;61763.81;5013439;28;20226;-66
2023/08/12 02:51:36;;;;;;;3.97;2.60;;;;;;;18.75;nan;61580.00;5012563;28;20212;-66
2023/08/12 02:54:02;;;;;;;4.25;3.10;;;;;;;19.05;nan;61511.88;5013347;28;20711;-66
2023/08/12 02:56:27;;;;;;;3.45;2.50;;;;;;;19.18;nan;61508.47;5013096;28;20172;-66
2023/08/12 02:58:53;;;;;;;3.72;2.67;;;;;;;19.27;nan;61589.16;5013055;28;20588;-66
2023/08/12 03:01:18;;;;;;;3.55;2.80;;;;;;;19.12;nan;61608.44;5011830;28;20189;-66
2023/08/12 03:03:44;;;;;;;3.40;2.47;;;;;;;19.35;nan;61548.44;5006462;28;20610;-68
2023/08/12 03:06:10;;;;;;;3.42;2.45;;;;;;;19.06;nan;61639.91;5011074;28;20191;-67
2023/08/12 03:08:35;;;;;;;3.88;2.90;;;;;;;19.38;nan;61676.19;5012509;28;20179;-66
2023/08/12 03:11:02;;;;;;;4.10;2.70;;;;;;;19.44;nan;61547.72;5012505;28;20182;-66
2023/08/12 03:13:28;;;;;;;4.75;3.10;;;;;;;19.64;nan;61666.84;5012400;28;20191;-66
2023/08/12 03:15:53;;;;;;;6.40;2.90;;;;;;;19.67;nan;61586.72;5012530;28;20180;-66
2023/08/12 03:18:19;;;;;;;3.95;2.90;;;;;;;19.53;nan;61586.97;5012225;28;20172;-66
2023/08/12 03:20:44;;;;;;;3.53;2.78;;;;;;;19.38;nan;61707.84;5012194;28;20210;-67
2023/08/12 03:23:09;;;;;;;3.53;2.90;;;;;;;19.55;nan;61667.00;5013337;28;20696;-66
2023/08/12 03:25:35;;;;;;;3.53;2.40;;;;;;;19.56;nan;61618.31;5013035;28;20598;-66
2023/08/12 03:28:00;;;;;;;3.38;2.92;;;;;;;19.33;nan;61489.16;5013020;28;20216;-66
2023/08/12 03:30:26;;;;;;;4.13;2.70;;;;;;;19.44;nan;61558.66;5012835;28;20172;-65
2023/08/12 03:32:52;;;;;;;4.50;3.00;;;;;;;19.45;nan;61616.22;5012804;28;20631;-64
2023/08/12 03:35:18;;;;;;;2.92;2.40;;;;;;;19.59;nan;61533.59;5012503;28;20578;-65
2023/08/12 03:37:43;;;;;;;3.65;2.50;;;;;;;19.72;nan;61610.53;5012601;28;20172;-65
2023/08/12 03:40:09;;;;;;;3.97;2.72;;;;;;;19.78;nan;61566.06;5013006;28;20207;-65
2023/08/12 03:42:34;;;;;;;3.42;2.58;;;;;;;19.83;nan;61534.84;5012702;28;20180;-65
2023/08/12 03:45:00;;;;;;;4.47;2.70;;;;;;;19.90;nan;61563.50;5012859;28;20596;-65
2023/08/12 03:47:25;;;;;;;4.18;2.45;;;;;;;19.97;nan;61708.91;5012724;28;20271;-65
2023/08/12 03:49:51;;;;;;;3.78;2.60;;;;;;;19.90;nan;61615.38;5012224;28;20260;-65
2023/08/12 03:52:17;;;;;;;3.38;2.70;;;;;;;20.12;nan;61767.41;5012259;28;20243;-65
2023/08/12 03:54:42;;;;;;;3.97;2.90;;;;;;;20.24;nan;61664.28;5012905;28;20172;-65
2023/08/12 03:57:07;;;;;;;3.45;2.38;;;;;;;20.19;nan;61676.78;5012464;28;20618;-65
2023/08/12 03:59:33;;;;;;;4.22;2.97;;;;;;;19.99;nan;61736.53;5012160;28;20195;-65
2023/08/12 04:01:58;;;;;;;3.63;2.65;;;;;;;20.24;nan;61694.84;5012687;28;20183;-64
2023/08/12 04:04:24;;;;;;;6.78;2.70;;;;;;;20.21;nan;61745.91;5011940;28;20176;-65
2023/08/12 04:06:51;;;;;;;5.05;2.72;;;;;;;19.97;nan;61747.22;5012314;28;20254;-65
2023/08/12 04:09:19;;;;;;;2.97;2.50;;;;;;;20.07;nan;61748.22;5012337;28;20168;-65
2023/08/12 04:11:45;;;;;;;4.18;2.65;;;;;;;20.02;nan;61755.50;5012256;28;20646;-65
2023/08/12 04:14:12;;;;;;;4.07;2.80;;;;;;;19.98;nan;61642.00;5011863;28;20198;-65
2023/08/12 04:16:38;;;;;;;4.88;3.85;;;;;;;19.95;nan;61618.44;5011985;28;20680;-65
2023/08/12 04:19:03;;;;;;;3.83;2.60;;;;;;;20.15;nan;61650.91;5011892;28;20278;-66
2023/08/12 04:21:29;;;;;;;3.90;2.92;;;;;;;20.18;nan;61660.06;5012243;28;20246;-65
2023/08/12 04:23:54;;;;;;;4.90;2.88;;;;;;;20.31;nan;61702.25;5012477;28;20172;-69
2023/08/12 04:26:19;;;;;;;4.32;3.00;;;;;;;20.14;nan;61597.91;5012548;28;20198;-64
2023/08/12 04:28:45;;;;;;;3.63;2.70;;;;;;;20.11;nan;61623.63;5012323;28;20227;-65
2023/08/12 04:31:10;;;;;;;4.38;3.10;;;;;;;20.12;nan;61810.94;5011177;28;20187;-65
2023/08/12 04:33:36;;;;;;;3.03;2.60;;;;;;;20.15;nan;61809.19;5011518;28;20176;-65
2023/08/12 04:36:01;;;;;;;4.22;3.00;;;;;;;20.35;nan;61771.66;5011781;28;20169;-66
2023/08/12 04:38:26;;;;;;;4.40;3.40;;;;;;;20.32;nan;61709.13;5011640;28;20187;-65
2023/08/12 04:40:55;;;;;;;4.88;3.28;;;;;;;20.45;nan;61666.78;5011743;28;20624;-65
2023/08/12 04:43:20;;;;;;;4.47;3.20;;;;;;;20.24;nan;61811.63;5012083;28;20168;-65
2023/08/12 04:45:46;;;;;;;4.93;3.20;;;;;;;20.37;nan;61789.50;5011614;28;20180;-65
2023/08/12 04:48:12;;;;;;;5.18;3.40;;;;;;;20.36;nan;61617.66;5011582;28;20173;-65
2023/08/12 04:50:38;;;;;;;5.32;3.25;;;;;;;20.45;nan;61668.81;5011817;28;20176;-65
2023/08/12 04:53:07;;;;;;;4.40;3.20;;;;;;;20.59;nan;61702.84;5011993;28;20171;-65
2023/08/12 04:55:33;;;;;;;4.95;3.00;;;;;;;20.68;nan;61713.06;5011801;28;20177;-65
2023/08/12 04:57:59;;;;;;;4.18;2.97;;;;;;;20.66;nan;61978.25;5010723;28;20561;-65
2023/08/12 05:00:25;;;;;;;4.30;3.08;;;;;;;20.85;nan;61732.34;5011374;28;20203;-63
2023/08/12 05:02:51;;;;;;;4.95;3.20;;;;;;;20.65;nan;61670.72;5013520;28;20314;-67
2023/08/12 05:05:16;;;;;;;5.00;2.88;;;;;;;20.88;nan;61740.94;5016435;28;20172;-64
2023/08/12 05:07:41;;;;;;;3.08;2.50;;;;;;;20.95;nan;61748.31;5015416;28;20183;-66
2023/08/12 05:10:07;;;;;;;3.92;3.15;;;;;;;20.72;nan;61876.00;5015466;28;20253;-65
2023/08/12 05:12:33;;;;;;;4.57;2.90;;;;;;;20.76;nan;61831.22;5015267;28;20647;-64
2023/08/12 05:14:58;;;;;;;3.90;3.25;;;;;;;20.98;nan;61747.09;5015259;28;20187;-67
2023/08/12 05:17:23;;;;;;;4.68;2.97;;;;;;;20.82;nan;61730.97;5014911;28;20635;-65
2023/08/12 05:19:49;;;;;;;3.63;3.00;;;;;;;20.86;nan;61702.31;5009009;28;20196;-68
2023/08/12 05:22:15;;;;;;;5.53;3.28;;;;;;;21.19;nan;61803.59;5003982;28;20187;-65
2023/08/12 05:24:41;;;;;;;6.38;3.05;;;;;;;21.22;nan;61851.19;5006794;28;20181;-65
2023/08/12 05:27:06;;;;;;;5.00;3.40;;;;;;;21.36;nan;61773.53;5004815;28;20174;-67
2023/08/12 05:29:32;;;;;;;8.40;4.07;;;;;;;21.27;nan;61719.13;5000242;28;20204;-65
2023/08/12 05:31:58;;;;;;;6.78;3.80;;;;;;;21.42;nan;61884.31;5002062;28;20184;-64
2023/08/12 05:34:23;;;;;;;4.03;3.17;;;;;;;21.38;nan;61796.56;5003775;28;20176;-66
2023/08/12 05:36:48;;;;;;;7.38;3.20;;;;;;;21.43;nan;61646.28;5005781;28;20256;-64
2023/08/12 05:39:15;;;;;;;3.63;2.72;;;;;;;21.54;nan;61908.94;4993702;28;20203;-65
2023/08/12 05:41:41;;;;;;;3.70;2.88;;;;;;;21.35;nan;61892.53;4995296;28;20184;-66
2023/08/12 05:44:06;;;;;;;3.80;3.13;;;;;;;21.62;nan;61818.06;5011384;28;20176;-66
2023/08/12 05:46:32;;;;;;;5.47;3.20;;;;;;;21.44;nan;61904.78;5014223;28;20179;-65
2023/08/12 05:48:57;;;;;;;4.40;3.03;;;;;;;21.68;nan;61798.88;5014446;28;20247;-66
2023/08/12 05:51:23;;;;;;;3.50;2.83;;;;;;;21.43;nan;62057.59;5014424;28;20172;-67
2023/08/12 05:53:48;;;;;;;5.40;3.63;;;;;;;21.46;nan;61914.84;5013934;28;20306;-66
2023/08/12 05:56:14;;;;;;;3.17;2.88;;;;;;;21.76;nan;61870.38;5014331;28;20195;-65
2023/08/12 05:58:39;;;;;;;4.13;3.20;;;;;;;21.51;nan;61983.50;5014524;28;20169;-65
2023/08/12 06:01:05;;;;;;;6.05;3.25;;;;;;;21.88;nan;61876.75;5014421;28;20587;-67
2023/08/12 06:03:32;;;;;;;3.78;2.83;;;;;;;21.87;nan;61906.28;5013628;28;20164;-65
2023/08/12 06:05:58;;;;;;;3.95;3.05;;;;;;;21.87;nan;61872.47;5013996;28;20339;-63
2023/08/12 06:08:23;;;;;;;4.40;2.95;;;;;;;21.94;nan;61953.84;5014298;28;20187;-64
2023/08/12 06:10:49;;;;;;;3.63;2.75;;;;;;;22.05;nan;61889.78;5013895;28;20169;-66
2023/08/12 06:13:14;;;;;;;3.55;2.60;;;;;;;22.02;nan;61996.78;5013121;28;20172;-65
2023/08/12 06:15:40;;;;;;;4.93;3.30;;;;;;;22.12;nan;61941.97;5012175;28;20192;-65
2023/08/12 06:18:05;;;;;;;7.82;3.28;;;;;;;22.13;nan;62125.28;5013978;28;20176;-66
2023/08/12 06:20:31;;;;;;;4.60;3.08;;;;;;;19.70;nan;63488.78;5013652;28;20255;-66
2023/08/12 06:22:56;;;;;;;4.10;3.08;;;;;;;22.36;nan;62042.16;5013636;28;20698;-66
2023/08/12 06:25:22;;;;;;;3.42;3.03;;;;;;;22.52;nan;62016.09;5013355;28;20539;-66
2023/08/12 06:27:47;;;;;;;3.47;2.83;;;;;;;18.97;nan;61531.88;5013350;28;20297;-66
2023/08/12 06:30:13;;;;;;;6.22;3.35;;;;;;;22.83;nan;62231.22;5013147;28;20180;-65
2023/08/12 06:32:39;;;;;;;8.60;3.10;;;;;;;23.21;nan;62044.03;5013350;28;20172;-66
2023/08/12 06:35:05;;;;;;;5.40;3.13;;;;;;;23.24;nan;62008.31;5013434;28;20650;-65
2023/08/12 06:37:30;;;;;;;3.58;3.10;;;;;;;23.61;nan;62120.31;5013615;28;20180;-65
2023/08/12 06:39:56;;;;;;;4.35;2.80;;;;;;;23.62;nan;62095.34;5013496;28;20196;-66
2023/08/12 06:42:22;;;;;;;3.83;2.92;;;;;;;23.96;nan;62107.97;5012398;28;20211;-65
2023/08/12 06:44:55;;;;;;;5.43;2.90;;;;;;;24.28;nan;62286.97;5012957;28;20184;-67
2023/08/12 06:47:20;;;;;;;3.95;2.83;;;;;;;24.54;nan;62191.78;5013445;28;20249;-65
2023/08/12 06:49:46;;;;;;;7.13;3.30;;;;;;;20.42;nan;61684.16;5012881;28;20675;-66
2023/08/12 06:52:11;;;;;;;4.30;2.75;;;;;;;25.35;nan;62321.69;5013090;28;20607;-66
2023/08/12 06:54:37;;;;;;;4.03;2.75;;;;;;;25.45;nan;62464.53;5012936;28;20176;-67
2023/08/12 06:57:03;;;;;;;4.28;2.88;;;;;;;25.55;nan;62323.63;5012660;28;20273;-66
2023/08/12 06:59:28;;;;;;;3.40;2.70;;;;;;;25.29;nan;62407.00;5012564;28;20207;-66
2023/08/12 07:01:53;;;;;;;2.75;2.30;;;;;;;25.40;nan;62322.16;5012449;28;20172;-67
2023/08/12 07:04:19;;;;;;;3.63;2.58;;;;;;;25.11;nan;62315.25;5012416;28;20176;-64
2023/08/12 07:06:44;;;;;;;4.90;2.47;;;;;;;25.04;nan;62347.03;5012061;28;20604;-65
2023/08/12 07:09:09;;;;;;;3.38;2.67;;;;;;;25.01;nan;62346.81;5012673;28;20179;-66
2023/08/12 07:11:35;;;;;;;5.05;2.75;;;;;;;24.97;nan;62378.28;5012635;28;20172;-65
2023/08/12 07:14:00;;;;;;;4.18;2.95;;;;;;;25.19;nan;62292.97;5012614;28;20180;-65
2023/08/12 07:16:26;;;;;;;3.03;2.65;;;;;;;25.05;nan;62199.69;5012346;28;20184;-64
2023/08/12 07:18:51;;;;;;;3.42;2.42;;;;;;;25.07;nan;62279.84;5011199;28;20628;-67
2023/08/12 07:21:16;;;;;;;2.90;2.60;;;;;;;25.25;nan;62433.81;5012690;28;20172;-67
2023/08/12 07:23:42;;;;;;;3.90;2.67;;;;;;;25.38;nan;62327.75;5012324;28;20519;-66
2023/08/12 07:26:07;;;;;;;3.47;2.72;;;;;;;25.24;nan;62337.94;5011940;28;20187;-66
2023/08/12 07:28:33;;;;;;;3.58;2.65;;;;;;;25.25;nan;62282.06;5012367;28;20634;-66
2023/08/12 07:31:01;;;;;;;4.60;2.75;;;;;;;25.62;nan;62467.72;5012281;28;20180;-68
2023/08/12 07:33:26;;;;;;;3.20;2.70;;;;;;;25.64;nan;62377.81;5012384;28;20245;-66
2023/08/12 07:35:52;;;;;;;4.80;2.78;;;;;;;25.60;nan;62357.53;5012176;28;20635;-66
2023/08/12 07:38:17;;;;;;;2.90;2.55;;;;;;;25.48;nan;62284.19;5012097;28;20226;-66
2023/08/12 07:40:43;;;;;;;3.78;2.60;;;;;;;26.03;nan;62451.19;5011873;28;20226;-66
2023/08/12 07:43:08;;;;;;;3.78;2.50;;;;;;;26.01;nan;62469.84;5011701;28;20533;-66
2023/08/12 07:45:33;;;;;;;3.33;2.55;;;;;;;26.26;nan;62437.63;5012126;28;20180;-66
2023/08/12 07:47:59;;;;;;;3.50;2.65;;;;;;;26.15;nan;62446.56;5011798;28;20643;-66
2023/08/12 07:50:24;;;;;;;3.72;2.63;;;;;;;26.40;nan;62471.41;5011405;28;20310;-66
2023/08/12 07:52:50;;;;;;;4.32;2.83;;;;;;;26.26;nan;62419.84;4995544;28;20635;-67
2023/08/12 07:55:16;;;;;;;2.88;2.50;;;;;;;26.23;nan;62437.38;4992458;28;20176;-67
2023/08/12 07:57:41;;;;;;;3.35;2.70;;;;;;;26.69;nan;62583.22;4991885;28;20231;-67
2023/08/12 08:00:08;;;;;;;3.38;2.60;;;;;;;26.75;nan;62690.31;4992174;28;20267;-66
2023/08/12 08:02:33;;;;;;;2.78;2.42;;;;;;;26.67;nan;62450.41;4992321;28;20200;-66
2023/08/12 08:04:58;;;;;;;3.78;2.63;;;;;;;27.01;nan;62640.84;4991041;28;20205;-66
2023/08/12 08:07:24;;;;;;;3.58;2.90;;;;;;;27.01;nan;62546.41;4990943;28;20244;-65
2023/08/12 08:09:51;;;;;;;3.53;2.72;;;;;;;27.26;nan;62577.06;4991904;28;20169;-66
2023/08/12 08:12:16;;;;;;;2.67;2.20;;;;;;;27.12;nan;62521.69;4990046;28;20179;-65
2023/08/12 08:14:42;;;;;;;4.25;2.75;;;;;;;27.42;nan;62602.69;4991904;28;20177;-67
2023/08/12 08:17:07;;;;;;;3.50;2.50;;;;;;;27.37;nan;62650.03;4992052;28;20248;-67
2023/08/12 08:19:33;;;;;;;2.80;2.50;;;;;;;24.03;nan;62715.91;4991947;28;20619;-67
2023/08/12 08:21:58;;;;;;;2.88;2.35;;;;;;;27.59;nan;62628.00;4992195;28;20260;-66
2023/08/12 08:24:24;;;;;;;3.58;2.58;;;;;;;27.56;nan;62587.78;4990846;28;20628;-65
2023/08/12 08:26:49;;;;;;;3.63;2.25;;;;;;;27.85;nan;62649.31;4991595;28;20165;-69
2023/08/12 08:29:14;;;;;;;4.63;2.80;;;;;;;28.05;nan;62687.97;4992062;28;20643;-67
2023/08/12 08:31:40;;;;;;;5.32;2.78;;;;;;;28.01;nan;62885.75;4991907;28;20215;-67
2023/08/12 08:34:06;;;;;;;3.20;2.47;;;;;;;28.08;nan;62691.41;4991777;28;20256;-66
2023/08/12 08:36:31;;;;;;;4.55;2.60;;;;;;;28.05;nan;62779.97;4992452;28;20175;-66
2023/08/12 08:38:57;;;;;;;3.53;2.70;;;;;;;27.57;nan;62722.84;4998180;28;20303;-66
2023/08/12 08:41:24;;;;;;;4.20;2.70;;;;;;;27.98;nan;62698.34;4998447;28;20176;-66
2023/08/12 08:43:52;;;;;;;3.17;2.42;;;;;;;28.14;nan;62708.25;4998249;28;20184;-66
2023/08/12 08:46:18;;;;;;;5.53;2.50;;;;;;;28.42;nan;62737.13;4998373;28;20211;-66
2023/08/12 08:48:44;;;;;;;2.95;2.50;;;;;;;28.46;nan;62762.75;4998222;28;20176;-66
2023/08/12 08:51:11;;;;;;;3.83;2.58;;;;;;;28.61;nan;62832.00;4998371;28;20234;-67
2023/08/12 08:53:40;;;;;;;3.03;2.47;;;;;;;27.94;nan;62767.34;4998531;28;20271;-66
2023/08/12 08:56:07;;;;;;;2.83;2.10;;;;;;;28.61;nan;62855.66;4997933;28;20191;-65
2023/08/12 08:58:32;;;;;;;3.58;2.50;;;;;;;28.59;nan;62769.19;4998242;28;20164;-66
2023/08/12 09:00:58;;;;;;;2.65;2.30;;;;;;;28.51;nan;62852.66;4997847;28;20207;-67
2023/08/12 09:03:25;;;;;;;2.65;2.28;;;;;;;28.58;nan;62855.41;4998001;28;20172;-66
2023/08/12 09:05:52;;;;;;;3.50;2.28;;;;;;;28.47;nan;62717.16;4998198;28;20208;-65
2023/08/12 09:08:18;;;;;;;3.00;2.40;;;;;;;28.75;nan;62756.56;4998285;28;20230;-65
2023/08/12 09:10:46;;;;;;;2.78;2.45;;;;;;;26.15;nan;62611.63;4997760;28;20178;-66
2023/08/12 09:13:13;;;;;;;3.00;2.40;;;;;;;29.14;nan;62877.06;4996736;28;20178;-65
2023/08/12 09:15:38;;;;;;;3.13;2.33;;;;;;;29.26;nan;63067.28;4998301;28;20176;-66
2023/08/12 09:18:07;;;;;;;3.58;2.30;;;;;;;29.23;nan;62871.59;4997741;28;20167;-65
2023/08/12 09:20:33;;;;;;;4.00;2.72;;;;;;;29.20;nan;62862.31;4997854;28;20587;-65
2023/08/12 09:23:00;;;;;;;3.70;2.65;;;;;;;28.73;nan;62772.13;4997405;28;20172;-65
2023/08/12 09:25:29;;;;;;;3.58;2.60;;;;;;;29.00;nan;62800.44;4996511;28;20172;-66
2023/08/12 09:27:57;;;;;;;2.58;2.20;;;;;;;28.60;nan;62744.63;4996906;28;20234;-66
2023/08/12 09:30:23;;;;;;;3.08;2.33;;;;;;;28.27;nan;62849.34;4997522;28;20176;-66
2023/08/12 09:33:00;;;;;;;4.18;2.40;;;;;;;28.23;nan;62689.66;4997483;28;20656;-66
2023/08/12 09:35:32;;;;;;;3.17;2.30;;;;;;;26.68;nan;62561.09;4997720;28;20179;-66
2023/08/12 09:37:57;;;;;;;3.40;2.45;;;;;;;28.22;nan;62711.59;4997538;28;20207;-66
2023/08/12 09:40:23;;;;;;;3.60;2.50;;;;;;;27.98;nan;62743.03;4997989;28;20283;-66
2023/08/12 09:42:50;;;;;;;2.78;2.22;;;;;;;27.81;nan;62751.84;4997672;28;20181;-66
2023/08/12 09:45:15;;;;;;;4.53;2.30;;;;;;;27.87;nan;62637.88;4997963;28;20184;-67
2023/08/12 09:47:43;;;;;;;4.15;2.00;;;;;;;28.35;nan;62913.75;4997678;28;20636;-67
2023/08/12 09:50:08;;;;;;;2.72;2.22;;;;;;;28.29;nan;62701.22;4994774;28;20165;-67
2023/08/12 09:52:35;;;;;;;3.08;2.13;;;;;;;28.24;nan;62976.78;4994803;28;20176;-67
2023/08/12 09:55:05;;;;;;;3.45;2.22;;;;;;;28.45;nan;62738.50;4995036;28;20519;-67
2023/08/12 09:57:33;;;;;;;3.35;2.40;;;;;;;28.70;nan;62781.81;4994475;28;20279;-66
2023/08/12 10:00:00;;;;;;;3.28;2.15;;;;;;;28.95;nan;62942.69;4994755;28;20208;-66
2023/08/12 10:02:26;;;;;;;3.33;2.35;;;;;;;29.35;nan;62926.97;4994580;28;20176;-66
2023/08/12 10:04:56;;;;;;;3.60;2.72;;;;;;;29.60;nan;62957.72;5011826;28;20651;-67
2023/08/12 10:07:23;;;;;;;2.97;2.33;;;;;;;29.63;nan;62874.81;5013321;28;20180;-68
2023/08/12 10:09:49;;;;;;;3.35;2.38;;;;;;;29.41;nan;62928.56;5013580;28;20175;-67
2023/08/12 10:12:15;;;;;;;4.38;2.42;;;;;;;29.74;nan;62939.56;5013949;28;20278;-67
2023/08/12 10:14:41;;;;;;;2.85;2.53;;;;;;;29.86;nan;63053.50;5013872;28;20179;-65
2023/08/12 10:17:09;;;;;;;3.20;2.17;;;;;;;29.92;nan;62944.44;5013520;28;20176;-66
2023/08/12 10:19:36;;;;;;;2.35;2.00;;;;;;;30.09;nan;63002.94;5012169;28;20326;-67
2023/08/12 10:22:03;;;;;;;3.10;2.20;;;;;;;29.97;nan;63039.22;5013466;28;20309;-66
2023/08/12 10:24:29;;;;;;;3.25;2.47;;;;;;;30.03;nan;62967.63;5013630;28;20254;-68
2023/08/12 10:26:55;;;;;;;3.03;2.30;;;;;;;30.16;nan;63014.19;5013487;28;20171;-67
2023/08/12 10:29:22;;;;;;;3.08;2.30;;;;;;;30.23;nan;62918.81;5013232;28;20235;-66
2023/08/12 10:31:48;;;;;;;2.50;1.95;;;;;;;29.94;nan;62972.53;5011628;28;20268;-67
2023/08/12 10:34:24;;;;;;;2.30;2.00;;;;;;;29.47;nan;63040.84;5013546;28;20218;-67
2023/08/12 10:37:00;;;;;;;2.95;2.30;;;;;;;29.46;nan;62896.88;5013274;28;20167;-66
2023/08/12 10:39:26;;;;;;;2.85;2.22;;;;;;;29.26;nan;63011.97;5013625;28;20218;-65
2023/08/12 10:41:55;;;;;;;2.25;1.98;;;;;;;29.69;nan;62865.88;5012808;28;20602;-65
2023/08/12 10:44:23;;;;;;;2.80;2.30;;;;;;;29.82;nan;62951.97;5013107;28;20175;-65
2023/08/12 10:46:53;;;;;;;2.92;2.35;;;;;;;30.14;nan;62963.88;5013267;28;20605;-65
2023/08/12 10:49:19;;;;;;;2.95;2.25;;;;;;;30.10;nan;63091.13;5012154;28;20298;-66
2023/08/12 10:51:54;;;;;;;2.92;2.20;;;;;;;29.65;nan;62955.56;5013262;28;20186;-66
2023/08/12 10:54:30;;;;;;;2.30;2.00;;;;;;;29.44;nan;62876.13;5012864;28;20171;-68
2023/08/12 10:57:02;;;;;;;2.58;2.00;;;;;;;29.64;nan;62944.44;5012662;28;20641;-67
2023/08/12 10:59:46;;;;;;;3.45;2.20;;;;;;;29.57;nan;62943.75;5012422;28;20203;-66
2023/08/12 11:02:18;;;;;;;3.72;2.67;;;;;;;29.88;nan;63042.66;5011157;28;20614;-66
2023/08/12 11:04:43;;;;;;;4.63;2.40;;;;;;;29.95;nan;63037.53;5012831;28;20183;-67
2023/08/12 11:07:20;;;;;;;5.53;3.05;;;;;;;30.24;nan;63039.22;5012797;28;20235;-67
2023/08/12 11:09:52;;;;;;;6.63;3.65;;;;;;;30.32;nan;63107.94;5013052;28;20217;-67
2023/08/12 11:12:18;;;;;;;5.05;3.13;;;;;;;30.58;nan;63032.91;5012982;28;20254;-67
2023/08/12 11:14:53;;;;;;;3.00;2.10;;;;;;;29.82;nan;62925.59;5012404;28;20229;-66
2023/08/12 11:17:19;;;;;;;2.85;2.40;;;;;;;29.44;nan;62979.44;5013125;28;20182;-66
2023/08/12 11:19:44;;;;;;;3.25;2.20;;;;;;;29.94;nan;62990.97;5012187;28;20581;-68
2023/08/12 11:22:12;;;;;;;2.78;2.15;;;;;;;29.75;nan;63028.25;5012310;28;20627;-67
2023/08/12 11:24:41;;;;;;;2.10;1.90;;;;;;;30.02;nan;62960.63;5012531;28;20171;-66
2023/08/12 11:27:09;;;;;;;2.63;2.20;;;;;;;26.28;nan;64450.97;5012631;28;20190;-66
2023/08/12 11:29:34;;;;;;;2.45;2.10;;;;;;;29.12;nan;62974.81;5010935;28;20194;-67
2023/08/12 11:32:00;;;;;;;2.47;2.15;;;;;;;29.12;nan;62843.19;5012749;28;20179;-68
2023/08/12 11:34:26;;;;;;;2.50;2.00;;;;;;;28.86;nan;62789.66;5012287;28;20643;-66
2023/08/12 11:36:51;;;;;;;3.20;2.30;;;;;;;29.08;nan;62780.69;5011724;28;20265;-66
2023/08/12 11:39:17;;;;;;;3.15;2.38;;;;;;;29.15;nan;62822.34;5012369;28;20203;-67
2023/08/12 11:41:43;;;;;;;4.20;2.22;;;;;;;29.47;nan;62932.84;5010380;28;20183;-68
2023/08/12 11:44:15;;;;;;;3.15;2.22;;;;;;;29.26;nan;62838.19;5011282;28;20183;-68
2023/08/12 11:46:40;;;;;;;3.17;2.40;;;;;;;29.64;nan;63009.78;5010021;28;20553;-67